Bei Facebook empfehlenBei Twitter postenGoogle plusPinterest

Das Wetter im Erzgebirge am 15.06.2016

Wetter und Klima am 15.06.2016 Holzhau im Erzgebirge (630m ü.NN)
Letzte gemessene Temperatur und Uhrzeit der Messung23:45:00 Uhr8.10 °C
Temperatur (Maximum / Höchstwert) und Uhrzeit der Messung15:45:00 Uhr20.10 °C
Temperatur (Minimum / Tiefstwert) und Uhrzeit der Messung23:45:008.10 °C
Errechneter Absolutwert der Temperaturschwankungen zwischen Tmin und Tmax des Tages12.00 K
Errechnete Tagesmitteltemperatur13.61042 °C
Gesamt - Niederschlag des Tages (in flüssiger Form)7.25 Liter / m²
Luftdruck (Maximum / Höchstwert) und Zeitpunkt der Messung23:30:00 Uhr1002.20 hPa
Luftdruck (Minimum / Tiefstwert) und Zeitpunkt der Messung05:30:00 Uhr998.00 hPa
Errechneter Absolutwert der Luftdruckschwankungen des Tages4.20 hPa
Höchste gemessene Windgeschwindigkeit und Uhrzeit der Messung23:45:00 Uhr0.00 km/h
Errechnete Windhäufigkeit in Relation zu den Messwerten des Tages0.00000 %
Niedrigste Windkühle (Windchill) und Zeitpunkt der Messung23:45:00 Uhr8.10 °C
Taupunkt (Maximum / Höchstwert) und Uhrzeit der Messung13:45:00 Uhr15.80 °C
Taupunkt (Minimum / Tiefstwert) und Uhrzeit der Messung23:30:006.20 °C
Anzahl der automatisch eingelesenen Messwerte 96

Detaillierte Wetter- und Klima- Messwerte für den 15.06.2016 in Holzhau im Erzgebirge (630m ü.NN)
ZeitTemperaturLuftdruckRel. LuftfeuchteWindWindrichtungWindchillTaupunktNiederschlag l/m²
23:45:008.10 °C1001.90 hPa89.00 %6.40 °C7.25
23:30:008.10 °C1002.20 hPa88.00 %6.20 °C7.25
23:15:008.20 °C1001.90 hPa88.00 %6.30 °C7.25
23:00:008.40 °C1001.80 hPa87.00 %6.40 °C7.25
22:45:008.90 °C1001.60 hPa86.00 %6.70 °C7.25
22:30:009.30 °C1001.70 hPa86.00 %7.10 °C7.25
22:15:009.60 °C1001.50 hPa85.00 %7.20 °C7.25
22:00:0010.20 °C1001.30 hPa84.00 %7.60 °C7.25
21:45:0010.80 °C1001.00 hPa83.00 %8.00 °C7.25
21:30:0011.40 °C1001.00 hPa82.00 %8.40 °C7.25
21:15:0012.10 °C1000.70 hPa80.00 %8.80 °C7.25
21:00:0013.20 °C1000.50 hPa77.00 %9.30 °C7.25
20:45:0014.10 °C1000.30 hPa76.00 %9.90 °C7.25
20:30:0014.40 °C1000.30 hPa76.00 %10.20 °C7.25
20:15:0014.90 °C1000.10 hPa75.00 %10.50 °C7.25
20:00:0015.40 °C999.90 hPa74.00 %10.80 °C7.25
19:45:0015.80 °C999.80 hPa74.00 %11.20 °C7.25
19:30:0015.80 °C999.70 hPa73.00 %11.00 °C7.25
19:15:0016.10 °C999.60 hPa74.00 %11.50 °C7.25
19:00:0016.00 °C999.50 hPa73.00 %11.20 °C7.25
18:45:0016.20 °C999.50 hPa71.00 %10.90 °C7.25
18:30:0016.70 °C999.40 hPa68.00 %10.80 °C7.25
18:15:0018.10 °C999.30 hPa66.00 %11.70 °C7.25
18:00:0018.40 °C999.50 hPa68.00 %12.40 °C7.25
17:45:0018.60 °C999.20 hPa71.00 %13.20 °C7.25
17:30:0018.30 °C999.50 hPa71.00 %13.00 °C7.25
17:15:0018.20 °C999.20 hPa70.00 %12.60 °C7.25
17:00:0019.10 °C999.00 hPa68.00 %13.10 °C7.25
16:45:0019.80 °C999.00 hPa69.00 %14.00 °C7.25
16:30:0019.60 °C999.00 hPa70.00 %14.00 °C7.25
16:15:0019.30 °C999.00 hPa71.00 %13.90 °C7.25
16:00:0019.60 °C999.10 hPa69.00 %13.80 °C7.25
15:45:0020.10 °C999.00 hPa71.00 %14.70 °C7.25
15:30:0018.90 °C999.20 hPa72.00 %13.70 °C7.25
15:15:0019.60 °C999.10 hPa72.00 %14.40 °C7.25
15:00:0019.80 °C998.90 hPa74.00 %15.00 °C7.25
14:45:0019.10 °C999.00 hPa77.00 %15.00 °C7.25
14:30:0018.60 °C999.10 hPa74.00 %13.90 °C7.25
14:15:0019.30 °C999.30 hPa75.00 %14.80 °C7.25
14:00:0018.90 °C999.10 hPa77.00 %14.80 °C7.25
13:45:0019.10 °C999.00 hPa81.00 %15.80 °C7.25
13:30:0018.40 °C999.20 hPa85.00 %15.80 °C7.25
13:15:0017.60 °C999.30 hPa87.00 %15.40 °C7.25
13:00:0017.10 °C999.50 hPa90.00 %15.40 °C7.25
12:45:0016.80 °C999.60 hPa91.00 %15.30 °C7.25
12:30:0016.10 °C999.60 hPa93.00 %15.00 °C7.25
12:15:0015.50 °C999.40 hPa94.00 %14.50 °C7.25
12:00:0014.90 °C999.60 hPa95.00 %14.10 °C7.25
11:45:0013.70 °C999.60 hPa96.00 %13.10 °C7.25
11:30:0012.90 °C999.60 hPa95.00 %12.10 °C7.25
11:15:0013.10 °C999.50 hPa95.00 %12.30 °C7.25
11:00:0012.50 °C999.60 hPa95.00 %11.70 °C7.25
10:45:0012.30 °C999.50 hPa95.00 %11.50 °C6.73
10:30:0011.90 °C999.50 hPa95.00 %11.10 °C6.73
10:15:0012.00 °C999.30 hPa95.00 %11.20 °C6.21
10:00:0011.90 °C999.40 hPa95.00 %11.10 °C6.21
09:45:0012.10 °C999.20 hPa95.00 %11.30 °C6.21
09:30:0011.90 °C999.10 hPa95.00 %11.10 °C6.21
09:15:0011.80 °C999.10 hPa95.00 %11.00 °C5.70
09:00:0011.90 °C999.10 hPa95.00 %11.10 °C5.70
08:45:0011.90 °C999.00 hPa95.00 %11.10 °C5.18
08:30:0011.90 °C998.90 hPa95.00 %11.10 °C5.18
08:15:0011.90 °C998.90 hPa95.00 %11.10 °C5.18
08:00:0011.90 °C998.80 hPa95.00 %11.10 °C5.18
07:45:0011.80 °C998.70 hPa95.00 %11.00 °C5.18
07:30:0011.60 °C998.60 hPa95.00 %10.80 °C5.18
07:15:0011.40 °C998.30 hPa95.00 %10.60 °C4.66
07:00:0011.50 °C998.30 hPa95.00 %10.70 °C4.66
06:45:0011.70 °C998.20 hPa95.00 %10.90 °C4.66
06:30:0011.60 °C998.20 hPa95.00 %10.80 °C4.66
06:15:0011.10 °C998.20 hPa94.00 %10.20 °C4.66
06:00:0010.90 °C998.10 hPa94.00 %10.00 °C4.66
05:45:0010.90 °C998.10 hPa94.00 %10.00 °C4.66
05:30:0010.90 °C998.00 hPa94.00 %10.00 °C4.66
05:15:0010.90 °C998.00 hPa94.00 %10.00 °C4.66
05:00:0010.90 °C998.00 hPa94.00 %10.00 °C4.66
04:45:0010.90 °C998.00 hPa94.00 %10.00 °C4.66
04:30:0010.90 °C998.10 hPa94.00 %10.00 °C4.66
04:15:0011.00 °C998.10 hPa94.00 %10.10 °C4.66
04:00:0011.10 °C998.20 hPa93.00 %10.00 °C4.14
03:45:0011.10 °C998.60 hPa93.00 %10.00 °C3.11
03:30:0011.30 °C998.50 hPa93.00 %10.20 °C2.59
03:15:0011.30 °C998.80 hPa93.00 %10.20 °C2.07
03:00:0011.20 °C998.70 hPa93.00 %10.10 °C2.07
02:45:0011.20 °C998.70 hPa93.00 %10.10 °C1.55
02:30:0011.20 °C998.70 hPa93.00 %10.10 °C1.55
02:15:0011.20 °C998.60 hPa93.00 %10.10 °C1.55
02:00:0011.20 °C998.80 hPa93.00 %10.10 °C1.03
01:45:0011.20 °C998.70 hPa93.00 %10.10 °C1.03
01:30:0011.10 °C998.70 hPa93.00 %10.00 °C0.52
01:15:0011.10 °C998.80 hPa92.00 %9.90 °C0.52
01:00:0011.20 °C998.80 hPa92.00 %9.90 °C 
00:45:0011.20 °C998.70 hPa92.00 %9.90 °C 
00:30:0011.30 °C998.60 hPa92.00 %10.00 °C 
00:15:0011.30 °C998.70 hPa91.00 %9.90 °C 
00:00:0011.30 °C998.60 hPa91.00 %9.90 °C 

Permanenter Link zu dieser Seite: Wetter im Erzgebirge am 15.06.2016
Performance-Info: Die Erstellung der Seite / Statistik(en) / Tabelle(n) erforderte 5 Datenbankserver-Abfrage(n) und dauerte 72 Millisekunden. (Dieser Messwert ist von der Gesamt-Auslastung des Servers abhängig.)
Erzgebirge - Wetter | Erzgebirge - Wetter (Mobilgeräte) | Komplette Klimadatenbank